33D00
43.21.63N 005.51.13W
IN73BI aprs.fi
zuletzt gehoert:
2021-04-23T13:01:44Z
zuerst gehoert:
2020-11-07T13:42:10Z

APRS Oviedo [IN73BI], 0 Stunde(n), 33D00 [15:20:53, 0s].
33D00 43.21.63N 005.51.13WIN73BI 0.472km 351°N13:01:44Z33-D-00 Protección Civil REMER / Delegación del Gobierno en Asturias
EA1JBE 43.21.56N 005.50.46WIN73BI 0.905km 67°ENE13:20:04Z434.525MHz Nodo TETRA DMO(3EA1JBE-2)
EA1YR 43.22.09N 005.51.86WIN73BI 1.711km 321°NW13:04:53ZMMDVM DVS 434.3500/434.3500 CC1
EA1L 43.20.37N 005.51.13WIN73BI 1.851km 182°S13:20:05Zea1l@ure.es V=11.7V,T=??.?C
Wind 000°/000kn, Böen bis 000kn, Temp 0.00c, Regen 0.0mm, letzte 24h 0.0mm, seit 0h 0.0mm, Baro 0000.0h, Hum: 0%(2EA1L-13)
LEHU 43.22.63N 005.49.57WIN73CJ 3.075km 41°NE13:00:14ZHelipuerto del HUCA: LEAS 231230Z VRB02KT CAVOK 21/13 Q1013 NOSIG=
ED1ZAU 43.23.04N 005.52.75WIN73BJ 3.823km 324°NW13:05:36ZRD625 438.5000/430.9000 CC1
EA1ABW 43.24.77N 005.47.77WIN73CJ 7.711km 35°NE13:01:26ZMMDVM MMDVM HS Hat 439.8250/439.8250 CC1
LEMR 43.25.83N 005.49.60WIN73CK 8.483km 13°NNE13:00:15ZAerodromo de la Morgal: LEAS 231230Z VRB02KT CAVOK 21/13 Q1013 NOSIG=
LEGM 43.26.15N 005.49.84WIN73CK 9.016km 11°N13:00:12ZHelipuerto de La Morgal: LEAS 231230Z VRB02KT CAVOK 21/13 Q1013 NOSIG=
EA1IMW 43.14.36N 005.46.93WIN73CF 14.156km 157°SSE13:04:40ZGRUPO RADIO GALENA (GRG) 433.4500/433.4500 CC1
ED1ZAY 43.29.47N 005.56.54WIN73AL 16.722km 334°NNW13:05:33ZRD625 438.3000/430.7000 CC1
EA1JBL 43.12.28N 005.47.42WIN73CE 17.544km 164°SSE13:04:24ZMMDVM DVMega 435.3000/435.3000 CC1
EB1DGC 43.12.60N 005.45.59WIN73CF 17.865km 156°SSE13:01:31ZMMDVM MMDVM HS Hat 433.4500/433.4500 CC1
EA1HWA 43.12.00N 005.47.40WIN73CE 18.072km 164°SSE13:03:13ZMMDVM MMDVM HS Hat 433.4500/433.4500 CC1
ED1ZAS 43.27.52N 005.40.17WIN73DL 18.579km 52°NE13:05:30ZRD985 438.2250/430.6250 CC1
ED1ZAE 43.27.99N 005.40.54WIN73DL 18.733km 49°NE13:20:51Z2m Voice 145.5875 -0.600 Mhz(3ED1ZAE-C)
400 M. PICO SAN MARTIN (GIJON) 13.5V,23.2C(2ED1ZAE-3)
EA1FLQ 43.22.00N 005.36.35WIN73EI 19.861km 87°E13:03:22ZMMDVM DVMega 439.9750/439.9750 CC5
EA1AHA 43.32.72N 005.54.38WIN73BN 21.499km 348°NNW13:10:57ZWind 225°/003kn, Böen bis 004kn, Temp 23.33c, Regen 0.0mm, letzte 24h 0.0mm, seit 0h 0.0mm, Baro 1014.2h, Hum: 37%(3EA1AHA-13)
EA1RCG 43.09.45N 005.49.78WIN73CD 22.152km 175°S13:05:08ZGRUPO RADIO GALENA (GRG) 433.4500/433.4500 CC1
EA1AQK 43.16.49N 005.35.99WIN73EG 22.247km 114°ESE12:31:41ZMMDVM MMDVM HS Hat 439.8500/439.8500 CC1
EA1IZV 43.33.25N 005.55.92WIN73AN 22.946km 344°NNW13:00:03ZEn proceso...
EB1TK 43.32.22N 005.42.32WIN73DM 23.306km 30°NNE13:15:16ZWind 004°/003kn, Böen bis 009kn, Temp 19.44c, Regen 0.0mm, letzte 24h 0.0mm, seit 0h 0.0mm, Baro 1016.3h, Hum: 59%(3EB1TK-13)
EA1FFA 43.31.53N 005.40.64WIN73DM 23.490km 37°NE13:02:14ZMMDVM MMDVM HS Hat 438.8000/438.8000 CC1
EA1DZR 43.31.47N 005.40.00WIN73DM 23.905km 38°NE13:04:56ZMMDVM DVMega 431.1000/431.1000 CC1
LEEL 43.32.98N 005.41.71WIN73DN 24.912km 30°NNE13:00:13ZHelipuerto de El Musel: LEAS 231230Z VRB02KT CAVOK 21/13 Q1013 NOSIG=
EA1DHE 43.33.98N 005.58.57WIN73AN 25.449km 337°NNW13:04:53ZMMDVM DVS 434.3500/434.3500 CC1
EB1GEM 43.30.00N 005.36.07WIN73EM 25.763km 52°NE13:06:39ZWX3in1Plus2.0 U=13.3V,T=??.?C/??.?F(3EB1GEM-3)
ED1ZAD 43.07.90N 005.38.52WIN73ED 30.160km 146°SE13:20:05ZED1ZAD-3 APRS Digi/Igate(3ED1ZAD-3)
EA1HJA 43.28.10N 005.30.45WIN73FL 30.432km 66°ENE13:20:13Z IN73FL WX3IN1+ 2.0 - V=13.5V,TX TEMP=44.1C
IN73FL WX3IN1+ 2.0 - V=13.3V,TX TEMP=33.2C(2EA1HJA-2)
EA1FHR 43.28.72N 005.26.41WIN73GL 35.868km 68°ENE13:02:27ZMMDVM MMDVM HS Hat 439.1500/439.1500 CC1
EA1JAY 43.29.32N 005.26.60WIN73GL 36.088km 66°ENE13:03:31Z434.525MHz Nodo TETRA DMO(3EA1JAY-4)
EA1JAY(2EA1JAY-2)
EA1JAY 438.8000/438.8000 CC1(2EA1JAY)
EC1KV 43.34.01N 006.16.01WIN63UN 40.893km 305°NW13:15:33Z VOLT.=13.6 V - TEMP.=??.? C(3EC1KV-1)
LETN 43.20.05N 006.22.69WIN63TI 42.682km 267°W13:00:14ZAerodromo de La Curiscada (Tineo): LEAS 231230Z VRB02KT CAVOK 21/13 Q1013 NOSIG=
EC1AE 43.08.94N 006.18.77WIN63UD 43.919km 239°WSW13:17:10Z IN63UD VOLT.=13.8 V - TEMP.=??.? C(3EC1AE-2)

aprs.pl 5.0.011w DL3EL © 2006-2021 [277395]